Time;durP1;ratioP1;P1;durP2;ratioP2;P2;SDS_P1;SDS_P2;PMS_P1;PMS_P2;Temp;Humidity;BMP_temperature;BMP_pressure;BME280_temperature;BME280_humidity;BME280_pressure;Samples;Min_cycle;Max_cycle;Signal;HPM_P1;HPM_P2
2021/12/30 00:00:25;;;;;;;11.93;11.02;;;;;;;4.87;97.83;99400.28;10484066;28;20540;-74
2021/12/30 00:05:27;;;;;;;12.15;11.23;;;;;;;4.76;98.47;99411.78;10502640;28;20429;-74
2021/12/30 00:10:29;;;;;;;12.85;11.65;;;;;;;4.66;99.13;99420.66;10501948;28;20053;-74
2021/12/30 00:15:30;;;;;;;12.80;11.70;;;;;;;4.65;99.69;99426.75;10501617;28;20095;-74
2021/12/30 00:20:33;;;;;;;13.73;12.50;;;;;;;4.99;99.36;99426.97;10483234;28;20044;-74
2021/12/30 00:25:41;;;;;;;11.15;10.27;;;;;;;4.81;98.67;99422.97;10501950;28;20044;-74
2021/12/30 00:30:44;;;;;;;11.25;10.25;;;;;;;4.60;100.00;99428.53;10501447;28;20127;-74
2021/12/30 00:35:46;;;;;;;10.88;10.00;;;;;;;4.57;100.00;99431.22;10501144;28;20044;-74
2021/12/30 00:40:48;;;;;;;12.00;10.90;;;;;;;4.57;100.00;99430.38;10501168;28;20056;-74
2021/12/30 00:45:51;;;;;;;12.55;11.55;;;;;;;4.73;100.00;99419.63;10500789;28;20448;-74
2021/12/30 00:50:54;;;;;;;13.10;12.07;;;;;;;4.84;100.00;99419.47;10500473;28;20417;-75
2021/12/30 00:55:58;;;;;;;13.65;12.50;;;;;;;4.65;100.00;99418.06;10483154;28;20497;-74
2021/12/30 01:01:00;;;;;;;14.18;13.05;;;;;;;4.58;100.00;99404.31;10502113;28;20055;-73
2021/12/30 01:06:03;;;;;;;14.38;13.13;;;;;;;4.54;100.00;99413.03;10484410;28;20063;-73
2021/12/30 01:11:08;;;;;;;13.73;12.63;;;;;;;4.45;100.00;99421.88;10498866;28;20048;-73
2021/12/30 01:16:17;;;;;;;15.63;14.32;;;;;;;4.38;100.00;99435.00;10482453;28;20041;-73
2021/12/30 01:21:19;;;;;;;15.70;14.25;;;;;;;4.38;100.00;99438.47;10499977;28;20041;-73
2021/12/30 01:26:21;;;;;;;13.88;12.68;;;;;;;4.51;100.00;99446.94;10489321;28;20044;-73
2021/12/30 01:31:23;;;;;;;16.23;14.93;;;;;;;4.38;100.00;99443.66;10507914;28;20048;-73
2021/12/30 01:36:44;;;;;;;15.10;13.68;;;;;;;4.51;100.00;99446.94;10489386;28;20100;-73
2021/12/30 01:41:46;;;;;;;13.30;12.20;;;;;;;4.66;100.00;99451.88;10489255;28;20059;-74
2021/12/30 01:46:54;;;;;;;12.65;11.60;;;;;;;4.69;100.00;99450.97;10490969;28;20033;-74
2021/12/30 01:51:56;;;;;;;12.45;11.27;;;;;;;4.55;100.00;99453.81;10488462;28;20040;-75
2021/12/30 01:57:02;;;;;;;12.23;11.13;;;;;;;4.53;100.00;99451.22;10506473;28;20047;-73
2021/12/30 02:02:04;;;;;;;13.52;12.23;;;;;;;4.58;100.00;99456.38;10506188;28;20127;-73
2021/12/30 02:07:09;;;;;;;14.02;12.77;;;;;;;4.57;100.00;99466.81;10488921;28;20124;-72
2021/12/30 02:12:11;;;;;;;13.45;12.27;;;;;;;4.51;100.00;99468.59;10487633;28;20049;-73
2021/12/30 02:17:13;;;;;;;14.25;12.95;;;;;;;4.44;100.00;99463.53;10487128;28;20044;-73
2021/12/30 02:22:14;;;;;;;14.65;13.40;;;;;;;4.46;100.00;99467.81;10506592;28;20098;-73
2021/12/30 02:27:17;;;;;;;15.63;14.23;;;;;;;4.39;100.00;99471.44;10487640;28;20445;-73
2021/12/30 02:32:21;;;;;;;17.20;15.45;;;;;;;4.30;100.00;99479.38;10505832;28;20418;-73
2021/12/30 02:37:23;;;;;;;17.95;15.75;;;;;;;4.36;100.00;99478.41;10486622;28;20045;-73
2021/12/30 02:42:25;;;;;;;16.83;15.30;;;;;;;4.52;100.00;99475.56;10506264;28;20090;-74
2021/12/30 02:47:26;;;;;;;17.55;15.95;;;;;;;4.65;100.00;99473.59;10486727;28;20412;-75
2021/12/30 02:52:28;;;;;;;17.58;15.95;;;;;;;4.49;100.00;99491.19;10487236;28;20052;-74
2021/12/30 02:57:30;;;;;;;20.40;18.00;;;;;;;4.39;100.00;99494.00;10504455;28;20437;-74
2021/12/30 03:02:31;;;;;;;17.75;16.15;;;;;;;4.55;100.00;99493.69;10485972;28;20397;-74
2021/12/30 03:07:33;;;;;;;18.67;16.88;;;;;;;4.58;100.00;99491.94;10503693;28;20068;-74
2021/12/30 03:12:35;;;;;;;17.92;16.30;;;;;;;4.45;100.00;99502.53;10485153;28;20390;-74
2021/12/30 03:17:40;;;;;;;26.85;20.25;;;;;;;4.58;100.00;99523.19;10503190;28;20456;-74
2021/12/30 03:22:44;;;;;;;19.63;17.88;;;;;;;4.68;100.00;99524.75;10485964;28;20402;-74
2021/12/30 03:27:45;;;;;;;21.60;18.75;;;;;;;4.69;100.00;99519.53;10502148;28;20044;-74
2021/12/30 03:32:48;;;;;;;21.50;18.45;;;;;;;5.10;100.00;99527.53;10484385;28;20056;-74
2021/12/30 03:37:49;;;;;;;4.80;4.40;;;;;;;6.05;100.00;99539.59;10484625;28;20044;-73
2021/12/30 03:42:51;;;;;;;3.20;3.00;;;;;;;7.20;100.00;99539.50;10484495;28;20486;-74
2021/12/30 03:47:53;;;;;;;3.20;2.90;;;;;;;7.75;100.00;99561.56;10484312;28;20044;-73
2021/12/30 03:53:02;;;;;;;3.10;2.22;;;;;;;8.16;100.00;99565.63;10502221;28;20052;-73
2021/12/30 03:58:04;;;;;;;2.25;1.83;;;;;;;8.41;100.00;99583.22;10485195;28;20041;-73
2021/12/30 04:03:05;;;;;;;2.40;1.90;;;;;;;8.63;100.00;99586.91;10483857;28;20056;-72
2021/12/30 04:08:09;;;;;;;2.83;2.35;;;;;;;8.72;100.00;99591.91;10501183;28;20044;-73
2021/12/30 04:13:10;;;;;;;1.85;1.75;;;;;;;8.83;100.00;99583.69;10483382;28;20056;-73
2021/12/30 04:18:12;;;;;;;2.58;2.33;;;;;;;9.04;100.00;99616.22;10483874;28;20048;-73
2021/12/30 04:23:14;;;;;;;2.30;1.90;;;;;;;9.07;99.13;99624.84;10482747;28;20049;-73
2021/12/30 04:28:16;;;;;;;2.65;2.25;;;;;;;9.01;99.54;99617.16;10499809;28;20040;-73
2021/12/30 04:33:18;;;;;;;2.72;2.13;;;;;;;9.09;99.47;99616.94;10482220;28;20051;-73
2021/12/30 04:38:19;;;;;;;2.45;2.08;;;;;;;9.13;99.49;99621.16;10499562;28;20051;-72
2021/12/30 04:43:21;;;;;;;3.10;2.40;;;;;;;9.02;98.69;99641.63;10482185;28;20078;-73
2021/12/30 04:48:23;;;;;;;3.00;2.70;;;;;;;9.03;99.09;99651.19;10501682;28;20043;-74
2021/12/30 04:53:25;;;;;;;3.38;2.65;;;;;;;8.93;99.98;99652.38;10483109;28;20578;-73
2021/12/30 04:58:26;;;;;;;5.75;2.50;;;;;;;9.19;98.38;99664.69;10481876;28;20093;-73
2021/12/30 05:03:28;;;;;;;3.03;2.40;;;;;;;9.20;97.87;99663.75;10500361;28;20094;-74
2021/12/30 05:08:30;;;;;;;4.13;2.75;;;;;;;9.17;98.93;99687.50;10481995;28;20048;-73
2021/12/30 05:13:31;;;;;;;2.60;2.40;;;;;;;9.20;98.32;99705.72;10482285;28;20046;-74
2021/12/30 05:18:34;;;;;;;3.17;2.80;;;;;;;9.24;98.11;99700.34;10500755;28;20070;-74
2021/12/30 05:23:36;;;;;;;3.72;2.53;;;;;;;9.20;98.18;99703.97;10500265;28;20494;-73
2021/12/30 05:28:37;;;;;;;4.07;2.67;;;;;;;9.29;97.41;99703.66;10499507;28;20041;-73
2021/12/30 05:33:39;;;;;;;4.57;2.78;;;;;;;9.53;96.68;99712.53;10500001;28;20052;-74
2021/12/30 05:38:41;;;;;;;4.28;2.70;;;;;;;9.48;96.69;99721.47;10498426;28;20090;-73
2021/12/30 05:43:44;;;;;;;3.60;2.58;;;;;;;9.44;96.04;99719.84;10500544;28;20080;-73
2021/12/30 05:48:46;;;;;;;3.72;3.05;;;;;;;9.48;96.90;99727.56;10481582;28;20075;-73
2021/12/30 05:53:48;;;;;;;6.20;3.25;;;;;;;9.68;95.45;99720.81;10498554;28;20138;-74
2021/12/30 05:58:49;;;;;;;4.72;2.40;;;;;;;9.64;95.08;99716.56;10481081;28;20044;-73
2021/12/30 06:03:51;;;;;;;5.03;3.20;;;;;;;9.53;95.54;99730.03;10498962;28;20131;-73
2021/12/30 06:08:53;;;;;;;5.45;3.08;;;;;;;9.50;95.20;99741.47;10501501;28;20452;-73
2021/12/30 06:13:54;;;;;;;4.47;2.92;;;;;;;9.31;95.88;99733.34;10488198;28;20394;-74
2021/12/30 06:18:57;;;;;;;6.05;2.92;;;;;;;9.34;95.82;99728.00;10505716;28;20059;-74
2021/12/30 06:23:59;;;;;;;3.08;2.20;;;;;;;9.28;96.54;99716.84;10507682;28;20097;-74
2021/12/30 06:29:00;;;;;;;3.45;2.53;;;;;;;9.21;96.33;99736.28;10512192;28;20052;-74
2021/12/30 06:34:02;;;;;;;4.05;2.20;;;;;;;9.53;94.08;99736.16;10513182;28;20064;-75
2021/12/30 06:39:05;;;;;;;5.50;2.88;;;;;;;9.31;94.56;99735.97;10510794;28;20124;-73
2021/12/30 06:44:07;;;;;;;6.28;2.95;;;;;;;9.48;93.28;99743.31;10509040;28;20524;-73
2021/12/30 06:49:09;;;;;;;4.03;2.63;;;;;;;9.31;94.47;99754.31;10508201;28;20041;-74
2021/12/30 06:54:11;;;;;;;5.22;2.72;;;;;;;9.44;93.41;99752.19;10489751;28;20102;-74
2021/12/30 06:59:14;;;;;;;4.07;2.45;;;;;;;9.43;93.60;99766.22;10491288;28;20045;-74
2021/12/30 07:04:16;;;;;;;3.75;2.42;;;;;;;9.48;92.74;99761.69;10491416;28;20079;-74
2021/12/30 07:09:19;;;;;;;3.53;2.50;;;;;;;9.15;94.09;99775.81;10507977;28;20493;-73
2021/12/30 07:14:23;;;;;;;2.88;2.20;;;;;;;9.08;94.93;99783.88;10491783;28;20041;-74
2021/12/30 07:19:24;;;;;;;5.25;2.30;;;;;;;9.28;93.60;99783.25;10490582;28;20478;-74
2021/12/30 07:24:27;;;;;;;4.38;2.40;;;;;;;9.47;91.82;99804.53;10491867;28;20053;-74
2021/12/30 07:29:29;;;;;;;4.40;2.55;;;;;;;9.38;92.27;99815.31;10509268;28;20508;-74
2021/12/30 07:34:30;;;;;;;4.10;2.45;;;;;;;9.55;91.34;99820.06;10508251;28;20040;-74
2021/12/30 07:39:32;;;;;;;5.82;3.20;;;;;;;9.52;91.21;99825.41;10490082;28;20049;-73
2021/12/30 07:44:34;;;;;;;3.83;2.63;;;;;;;9.58;90.50;99833.09;10508562;28;20053;-73
2021/12/30 07:49:50;;;;;;;6.63;3.45;;;;;;;9.64;89.59;99830.25;10508715;28;20067;-73
2021/12/30 07:54:52;;;;;;;6.97;2.58;;;;;;;9.62;90.16;99842.59;10492330;28;20049;-74
2021/12/30 07:59:54;;;;;;;4.95;2.75;;;;;;;9.88;88.38;99843.53;10513811;28;20044;-73
2021/12/30 08:04:55;;;;;;;5.28;2.30;;;;;;;9.85;88.48;99855.00;10508653;28;20048;-73
2021/12/30 08:09:57;;;;;;;4.70;2.33;;;;;;;9.96;87.64;99865.13;10506763;28;20036;-74
2021/12/30 08:14:59;;;;;;;6.20;2.33;;;;;;;10.04;87.05;99848.22;10488773;28;20041;-73
2021/12/30 08:20:01;;;;;;;5.15;2.00;;;;;;;9.94;87.25;99846.81;10504213;28;20129;-74
2021/12/30 08:25:05;;;;;;;4.65;2.42;;;;;;;9.91;88.04;99846.91;10502055;28;20075;-74
2021/12/30 08:30:10;;;;;;;5.93;2.20;;;;;;;9.91;88.06;99848.69;10482341;28;20045;-74
2021/12/30 08:35:14;;;;;;;6.07;2.88;;;;;;;10.01;87.62;99856.22;10499772;28;20055;-72
2021/12/30 08:40:16;;;;;;;5.28;3.05;;;;;;;9.86;88.88;99864.56;10465615;28;20094;-73
2021/12/30 08:45:18;;;;;;;4.35;2.08;;;;;;;9.98;88.06;99890.44;10499811;28;20081;-74
2021/12/30 08:50:20;;;;;;;9.52;3.08;;;;;;;10.11;86.61;99873.38;10500664;28;20051;-74
2021/12/30 08:55:22;;;;;;;6.88;2.63;;;;;;;9.99;88.14;99879.03;10482520;28;20087;-74
2021/12/30 09:00:28;;;;;;;5.30;3.00;;;;;;;10.07;87.87;99873.53;10481414;28;20045;-74
2021/12/30 09:05:31;;;;;;;11.55;3.20;;;;;;;10.23;86.89;99856.38;10482971;28;20079;-73
2021/12/30 09:10:37;;;;;;;4.32;2.72;;;;;;;10.40;85.30;99840.06;10481136;28;20036;-74
2021/12/30 09:15:38;;;;;;;4.33;1.70;;;;;;;10.54;83.96;99840.47;10482011;28;20449;-74
2021/12/30 09:20:42;;;;;;;5.38;3.10;;;;;;;10.59;83.21;99840.31;10498804;28;20048;-73
2021/12/30 09:25:45;;;;;;;5.40;2.78;;;;;;;10.55;83.51;99860.56;10480575;28;20440;-75
2021/12/30 09:30:46;;;;;;;5.78;2.55;;;;;;;10.55;83.57;99867.59;10499537;28;20049;-74
2021/12/30 09:35:48;;;;;;;7.25;2.55;;;;;;;10.54;83.28;99863.28;10494518;22;20099;-71
2021/12/30 09:40:52;;;;;;;6.47;2.35;;;;;;;10.59;83.09;99871.84;10496230;28;20143;-71
2021/12/30 09:45:53;;;;;;;6.93;2.58;;;;;;;10.51;84.38;99869.47;10487901;28;20056;-71
2021/12/30 09:50:55;;;;;;;4.70;2.00;;;;;;;10.84;82.77;99875.31;10506458;28;20044;-71
2021/12/30 09:55:57;;;;;;;5.90;2.45;;;;;;;10.83;83.31;99864.88;10507859;28;20106;-71
2021/12/30 10:01:00;;;;;;;3.90;1.63;;;;;;;10.96;83.02;99853.00;10506998;28;20116;-71
2021/12/30 10:06:12;;;;;;;6.78;2.38;;;;;;;11.16;82.01;99848.78;10472402;28;20063;-72
2021/12/30 10:11:14;;;;;;;9.77;2.17;;;;;;;11.23;81.36;99827.44;10507461;28;20044;-71
2021/12/30 10:16:16;;;;;;;6.68;2.30;;;;;;;11.31;81.02;99816.63;10506374;28;20045;-70
2021/12/30 10:21:22;;;;;;;6.18;1.50;;;;;;;11.55;79.86;99812.19;10510466;28;20040;-71
2021/12/30 10:26:24;;;;;;;5.13;1.73;;;;;;;11.43;81.39;99795.09;10508356;28;20040;-72
2021/12/30 10:31:29;;;;;;;4.75;1.80;;;;;;;11.51;81.75;99793.03;10507781;28;20047;-71
2021/12/30 10:36:36;;;;;;;4.63;1.20;;;;;;;11.59;81.91;99796.19;10490534;28;20083;-71
2021/12/30 10:41:37;;;;;;;4.30;1.40;;;;;;;11.74;82.01;99784.22;10492127;28;20102;-71
2021/12/30 10:46:39;;;;;;;3.78;1.40;;;;;;;11.63;82.93;99789.91;10508194;28;20620;-71
2021/12/30 10:51:48;;;;;;;3.78;1.40;;;;;;;11.80;82.26;99783.09;10509017;28;20040;-71
2021/12/30 10:57:08;;;;;;;2.63;1.00;;;;;;;11.72;82.81;99779.91;10508512;28;20040;-71
2021/12/30 11:02:21;;;;;;;3.35;1.33;;;;;;;11.84;82.61;99779.47;10508393;28;20490;-72
2021/12/30 11:07:38;;;;;;;4.25;1.10;;;;;;;11.80;83.20;99789.22;10508872;28;20044;-72
2021/12/30 11:12:44;;;;;;;5.38;1.23;;;;;;;11.92;83.06;99794.94;10509547;28;20044;-71
2021/12/30 11:17:46;;;;;;;3.17;0.90;;;;;;;11.89;83.92;99788.03;10505455;28;20377;-71
2021/12/30 11:22:48;;;;;;;2.80;0.98;;;;;;;11.88;84.18;99780.19;10504684;28;20070;-72
2021/12/30 11:27:49;;;;;;;3.38;1.15;;;;;;;11.94;85.23;99788.69;10486696;28;20055;-71
2021/12/30 11:32:51;;;;;;;2.92;0.85;;;;;;;11.83;86.20;99790.91;10485550;28;20103;-72
2021/12/30 11:37:56;;;;;;;3.20;1.50;;;;;;;11.89;85.65;99784.53;10503561;28;20040;-71
2021/12/30 11:43:10;;;;;;;1.77;0.90;;;;;;;11.93;85.58;99778.22;10503392;28;20052;-72
2021/12/30 11:48:26;;;;;;;2.50;1.10;;;;;;;12.13;84.19;99773.00;10502729;28;20041;-72
2021/12/30 11:53:33;;;;;;;2.63;0.80;;;;;;;12.26;84.13;99775.94;10503396;28;20044;-72
2021/12/30 11:58:40;;;;;;;3.80;0.90;;;;;;;12.17;85.01;99773.69;10484498;28;20044;-73
2021/12/30 12:03:46;;;;;;;3.80;0.85;;;;;;;12.18;85.22;99770.16;10503281;28;20054;-72
2021/12/30 12:09:12;;;;;;;1.75;0.70;;;;;;;12.29;84.81;99760.84;10486963;28;20115;-72
2021/12/30 12:14:22;;;;;;;2.50;0.70;;;;;;;12.36;85.31;99767.59;10503141;28;20044;-72
2021/12/30 12:19:48;;;;;;;2.22;0.80;;;;;;;12.44;85.59;99769.00;10502099;28;20120;-72
2021/12/30 12:25:04;;;;;;;1.52;0.68;;;;;;;12.37;86.02;99750.84;10491291;28;20055;-72
2021/12/30 12:30:20;;;;;;;2.67;0.70;;;;;;;12.24;87.78;99767.25;10502615;28;20390;-73
2021/12/30 12:35:25;;;;;;;2.45;0.77;;;;;;;12.08;91.15;99770.53;10484510;28;20080;-71
2021/12/30 12:40:31;;;;;;;1.20;0.50;;;;;;;11.90;92.61;99765.16;10482834;28;20044;-71
2021/12/30 12:45:37;;;;;;;1.30;0.50;;;;;;;11.88;92.59;99773.16;10500961;28;20063;-71
2021/12/30 12:50:41;;;;;;;1.07;0.40;;;;;;;11.81;92.64;99780.41;10500063;28;20047;-71
2021/12/30 12:55:43;;;;;;;2.63;0.68;;;;;;;11.93;93.19;99775.59;10501615;28;20502;-71
2021/12/30 13:00:46;;;;;;;1.73;0.65;;;;;;;11.74;96.48;99775.47;10500083;28;20045;-72
2021/12/30 13:05:56;;;;;;;1.33;0.77;;;;;;;11.65;98.92;99776.69;10498511;28;20044;-71
2021/12/30 13:10:59;;;;;;;1.77;0.70;;;;;;;11.60;97.69;99760.22;10492078;28;20452;-71
2021/12/30 13:16:18;;;;;;;1.30;0.52;;;;;;;11.96;94.35;99763.16;10529711;28;20075;-71
2021/12/30 13:21:20;;;;;;;0.88;0.60;;;;;;;11.92;93.45;99771.25;10482958;28;20060;-71
2021/12/30 13:26:21;;;;;;;2.25;0.93;;;;;;;11.95;92.85;99765.84;10510730;28;20056;-72
2021/12/30 13:31:24;;;;;;;0.90;0.50;;;;;;;12.12;91.44;99764.19;10523525;28;20123;-71
2021/12/30 13:36:28;;;;;;;0.65;0.40;;;;;;;12.21;91.33;99768.22;10522909;28;20055;-70
2021/12/30 13:41:29;;;;;;;0.57;0.50;;;;;;;12.36;90.00;99761.47;10541276;28;20048;-72
2021/12/30 13:46:31;;;;;;;0.88;0.50;;;;;;;12.36;89.63;99762.31;10498700;28;20073;-70
2021/12/30 13:51:33;;;;;;;0.85;0.50;;;;;;;12.61;88.00;99761.22;10480101;28;20053;-70
2021/12/30 13:56:35;;;;;;;1.58;0.47;;;;;;;12.46;89.48;99768.03;10478029;28;20489;-71
2021/12/30 14:01:39;;;;;;;0.40;0.30;;;;;;;12.48;90.22;99757.41;10458583;28;20098;-71
2021/12/30 14:06:43;;;;;;;0.95;0.43;;;;;;;12.51;90.13;99752.88;10457687;28;20045;-71
2021/12/30 14:11:50;;;;;;;0.40;0.30;;;;;;;12.67;88.59;99763.59;10456964;28;20068;-71
2021/12/30 14:16:58;;;;;;;2.83;0.55;;;;;;;12.77;87.54;99761.41;10461566;28;20091;-71
2021/12/30 14:22:03;;;;;;;0.85;0.50;;;;;;;12.73;87.26;99778.28;10479751;28;20056;-71
2021/12/30 14:27:17;;;;;;;1.15;0.40;;;;;;;12.78;87.04;99771.88;10463029;28;20076;-71
2021/12/30 14:32:25;;;;;;;0.65;0.40;;;;;;;12.85;86.49;99783.03;10504259;28;20055;-71
2021/12/30 14:37:28;;;;;;;3.22;0.30;;;;;;;12.79;87.39;99796.47;10487268;28;20040;-71
2021/12/30 14:42:30;;;;;;;0.88;0.40;;;;;;;12.82;86.95;99797.19;10504648;28;20055;-72
2021/12/30 14:47:37;;;;;;;0.40;0.38;;;;;;;13.09;85.59;99805.63;10504818;28;20090;-70
2021/12/30 14:52:41;;;;;;;1.13;0.38;;;;;;;12.94;86.59;99803.72;10504637;28;20135;-70
2021/12/30 14:57:43;;;;;;;0.30;0.25;;;;;;;12.91;87.04;99810.91;10480634;28;20049;-71
2021/12/30 15:02:46;;;;;;;0.47;0.40;;;;;;;12.88;87.00;99819.78;10488743;28;20102;-71
2021/12/30 15:07:48;;;;;;;0.77;0.47;;;;;;;13.03;86.06;99820.91;10503357;28;20036;-71
2021/12/30 15:12:52;;;;;;;0.30;0.30;;;;;;;12.95;87.09;99817.75;10486308;28;20158;-71
2021/12/30 15:17:55;;;;;;;0.77;0.40;;;;;;;12.97;86.97;99818.53;10486314;28;20099;-70
2021/12/30 15:23:00;;;;;;;0.40;0.40;;;;;;;13.04;86.42;99830.53;10503616;28;20051;-71
2021/12/30 15:28:03;;;;;;;0.50;0.20;;;;;;;13.16;85.73;99839.69;10502897;28;20127;-71
2021/12/30 15:33:06;;;;;;;0.40;0.40;;;;;;;13.19;85.62;99836.88;10503724;28;20494;-71
2021/12/30 15:38:09;;;;;;;0.70;0.20;;;;;;;13.25;85.56;99842.78;10536899;22;20044;-75
2021/12/30 15:43:10;;;;;;;0.50;0.30;;;;;;;13.26;85.34;99852.41;10549833;28;20040;-76
2021/12/30 15:48:12;;;;;;;0.90;0.32;;;;;;;13.28;85.00;99847.94;10531812;28;20051;-77
2021/12/30 15:53:14;;;;;;;1.00;0.28;;;;;;;13.34;84.88;99846.78;10551490;28;20119;-76
2021/12/30 15:58:21;;;;;;;0.28;0.28;;;;;;;13.43;84.20;99835.78;10536967;28;20040;-75
2021/12/30 16:03:22;;;;;;;0.50;0.30;;;;;;;13.42;84.39;99841.16;10551905;28;20120;-74
2021/12/30 16:08:24;;;;;;;0.60;0.40;;;;;;;13.27;85.01;99851.47;10518721;28;20042;-76
2021/12/30 16:13:27;;;;;;;0.80;0.30;;;;;;;13.41;84.04;99848.19;10551237;28;20055;-75
2021/12/30 16:18:29;;;;;;;1.40;0.38;;;;;;;13.34;84.17;99865.28;10533097;28;20097;-75
2021/12/30 16:23:32;;;;;;;0.52;0.40;;;;;;;13.47;83.96;99857.63;10550700;28;20517;-76
2021/12/30 16:28:33;;;;;;;1.00;0.30;;;;;;;13.38;84.25;99862.41;10531312;28;20040;-76
2021/12/30 16:33:35;;;;;;;0.47;0.40;;;;;;;13.29;84.66;99865.47;10549942;28;20051;-76
2021/12/30 16:38:37;;;;;;;1.98;0.30;;;;;;;13.27;84.76;99872.59;10548863;28;20064;-73
2021/12/30 16:43:39;;;;;;;1.70;0.80;;;;;;;13.34;85.21;99879.31;10534162;28;20154;-76
2021/12/30 16:48:47;;;;;;;1.40;0.73;;;;;;;13.28;85.08;99882.25;10551108;28;20044;-75
2021/12/30 16:53:53;;;;;;;0.93;0.70;;;;;;;13.25;85.15;99881.53;10494663;28;20070;-76
2021/12/30 16:58:54;;;;;;;0.93;0.70;;;;;;;13.38;84.88;99891.47;10544213;28;20046;-75
2021/12/30 17:03:56;;;;;;;0.82;0.50;;;;;;;13.26;85.38;99896.44;10544196;28;20040;-76
2021/12/30 17:08:58;;;;;;;1.08;0.50;;;;;;;13.41;84.54;99890.44;10526880;28;20379;-75
2021/12/30 17:14:00;;;;;;;0.30;0.30;;;;;;;13.28;85.31;99903.38;10544269;28;20048;-75
2021/12/30 17:19:02;;;;;;;1.20;0.30;;;;;;;13.33;84.88;99905.81;10508288;28;20416;-76
2021/12/30 17:24:03;;;;;;;0.55;0.32;;;;;;;13.29;84.91;99893.66;10545283;28;20393;-75
2021/12/30 17:29:07;;;;;;;0.45;0.30;;;;;;;13.25;85.62;99902.66;10545054;28;20044;-76
2021/12/30 17:34:09;;;;;;;1.00;0.38;;;;;;;13.38;85.07;99909.94;10526650;28;20085;-76
2021/12/30 17:39:13;;;;;;;0.40;0.30;;;;;;;13.51;85.23;99914.66;10545019;28;20362;-75
2021/12/30 17:44:15;;;;;;;1.25;0.40;;;;;;;13.27;86.81;99908.69;10544227;28;20500;-77
2021/12/30 17:49:17;;;;;;;0.98;0.50;;;;;;;13.25;87.05;99905.28;10543524;28;20081;-75
2021/12/30 17:54:19;;;;;;;0.40;0.40;;;;;;;13.25;87.08;99910.56;10524813;28;20050;-76
2021/12/30 17:59:20;;;;;;;1.40;0.50;;;;;;;13.19;87.40;99895.81;10524192;28;20054;-75
2021/12/30 18:04:22;;;;;;;0.90;0.38;;;;;;;13.00;87.77;99922.16;10545056;28;20459;-75
2021/12/30 18:09:24;;;;;;;0.68;0.60;;;;;;;12.75;89.18;99932.03;10534438;28;20177;-75
2021/12/30 18:14:26;;;;;;;0.93;0.50;;;;;;;13.05;86.01;99937.78;10550202;28;20047;-76
2021/12/30 18:19:28;;;;;;;0.75;0.60;;;;;;;12.86;86.73;99959.69;10532509;28;20040;-76
2021/12/30 18:24:30;;;;;;;1.02;0.52;;;;;;;12.94;86.18;99967.28;10551810;28;20167;-77
2021/12/30 18:29:32;;;;;;;0.57;0.55;;;;;;;13.06;84.71;99964.13;10550619;28;20090;-75
2021/12/30 18:34:34;;;;;;;0.57;0.52;;;;;;;13.08;84.32;99964.06;10553290;28;20123;-75
2021/12/30 18:39:36;;;;;;;0.60;0.60;;;;;;;13.01;84.58;99975.78;10549150;28;20094;-75
2021/12/30 18:44:38;;;;;;;0.85;0.47;;;;;;;13.03;83.63;99974.81;10532800;28;20059;-76
2021/12/30 18:49:40;;;;;;;1.17;0.47;;;;;;;13.05;83.49;99975.59;10550964;28;20048;-75
2021/12/30 18:54:47;;;;;;;0.82;0.38;;;;;;;13.21;82.38;99959.09;10534583;28;20501;-75
2021/12/30 19:00:14;;;;;;;0.53;0.53;;;;;;;13.25;82.02;99973.91;10553744;28;20044;-75
2021/12/30 19:05:19;;;;;;;0.45;0.38;;;;;;;13.12;82.75;99974.41;10553305;28;20769;-76
2021/12/30 19:10:24;;;;;;;1.05;0.52;;;;;;;13.22;81.84;99987.19;10551988;28;20044;-76
2021/12/30 19:15:30;;;;;;;0.98;0.50;;;;;;;13.23;81.95;100003.00;10533568;28;20048;-75
2021/12/30 19:20:32;;;;;;;1.63;0.65;;;;;;;13.25;81.76;100010.88;10548972;28;20401;-75
2021/12/30 19:25:35;;;;;;;1.92;0.88;;;;;;;13.19;81.91;100017.22;10549790;28;20048;-76
2021/12/30 19:30:39;;;;;;;0.98;0.40;;;;;;;13.10;82.22;100026.41;10549876;28;20098;-75
2021/12/30 19:35:41;;;;;;;0.80;0.80;;;;;;;13.26;81.47;100017.84;10531497;28;20062;-77
2021/12/30 19:40:43;;;;;;;1.17;0.90;;;;;;;13.24;81.66;100009.16;10528415;28;20044;-75
2021/12/30 19:45:46;;;;;;;1.25;0.80;;;;;;;13.01;83.18;100008.28;10531191;28;20048;-75
2021/12/30 19:50:48;;;;;;;1.30;0.70;;;;;;;13.16;82.66;100012.09;10547128;28;20036;-75
2021/12/30 19:55:50;;;;;;;0.60;0.57;;;;;;;13.22;82.39;100025.03;10529436;28;20046;-75
2021/12/30 20:00:52;;;;;;;1.02;0.80;;;;;;;13.16;82.61;100021.78;10528685;28;20513;-76
2021/12/30 20:05:54;;;;;;;1.13;0.70;;;;;;;13.14;82.72;100029.75;10529749;28;20059;-75
2021/12/30 20:10:58;;;;;;;1.92;0.90;;;;;;;13.21;82.38;100031.22;10549525;28;20040;-74
2021/12/30 20:16:00;;;;;;;2.28;0.40;;;;;;;13.23;82.02;100026.75;10530007;28;20075;-75
2021/12/30 20:21:02;;;;;;;0.40;0.40;;;;;;;13.33;81.51;100037.81;10546489;28;20044;-76
2021/12/30 20:26:05;;;;;;;0.90;0.52;;;;;;;13.26;81.63;100042.47;10528753;28;20047;-77
2021/12/30 20:31:08;;;;;;;0.40;0.40;;;;;;;13.30;81.63;100041.41;10547145;28;20040;-75
2021/12/30 20:36:10;;;;;;;0.90;0.40;;;;;;;13.32;81.14;100044.84;10545972;28;20444;-73
2021/12/30 20:41:14;;;;;;;1.02;0.40;;;;;;;13.29;81.49;100052.06;10546403;28;20043;-75
2021/12/30 20:46:16;;;;;;;0.93;0.40;;;;;;;13.31;81.07;100055.47;10526933;28;20051;-75
2021/12/30 20:51:27;;;;;;;0.55;0.52;;;;;;;13.28;81.29;100050.31;10543662;28;20491;-76
2021/12/30 20:56:29;;;;;;;0.50;0.40;;;;;;;13.27;81.11;100051.25;10525452;28;20059;-76
2021/12/30 21:01:32;;;;;;;0.57;0.45;;;;;;;13.25;81.43;100064.50;10544015;28;20563;-75
2021/12/30 21:06:35;;;;;;;0.50;0.50;;;;;;;13.14;81.98;100064.06;10543955;28;20051;-76
2021/12/30 21:11:37;;;;;;;0.90;0.45;;;;;;;13.20;81.31;100073.53;10543554;28;20493;-76
2021/12/30 21:16:39;;;;;;;0.50;0.50;;;;;;;13.30;80.50;100077.53;10524150;28;20082;-75
2021/12/30 21:21:42;;;;;;;0.50;0.40;;;;;;;13.28;80.22;100080.22;10525483;28;20051;-75
2021/12/30 21:26:43;;;;;;;0.70;0.40;;;;;;;13.23;80.18;100082.19;10544219;28;20092;-76
2021/12/30 21:31:46;;;;;;;0.43;0.43;;;;;;;13.30;79.98;100090.72;10525167;28;20451;-75
2021/12/30 21:42:14;;;;;;;0.77;0.50;;;;;;;13.19;80.99;100092.91;10299589;28;19976;-72
2021/12/30 21:47:17;;;;;;;0.82;0.40;;;;;;;13.19;81.38;100103.47;10325152;28;20079;-73
2021/12/30 21:52:19;;;;;;;1.58;0.40;;;;;;;13.10;82.07;100102.94;10341444;28;20435;-74
2021/12/30 21:57:20;;;;;;;0.85;0.70;;;;;;;12.98;83.13;100110.50;10340981;28;20113;-74
2021/12/30 22:02:22;;;;;;;1.98;0.47;;;;;;;12.98;83.23;100098.16;10341330;28;20125;-73
2021/12/30 22:07:24;;;;;;;0.63;0.30;;;;;;;12.94;83.36;100109.75;10341270;28;20057;-74
2021/12/30 22:12:26;;;;;;;0.95;0.35;;;;;;;12.93;83.12;100096.63;10323283;28;20047;-74
2021/12/30 22:17:28;;;;;;;0.60;0.30;;;;;;;12.96;83.04;100101.75;10339027;28;20062;-73
2021/12/30 22:22:30;;;;;;;0.70;0.50;;;;;;;12.77;85.42;100112.19;10341132;28;20408;-73
2021/12/30 22:27:32;;;;;;;1.83;0.40;;;;;;;12.78;85.99;100106.00;10339833;28;20103;-72
2021/12/30 22:32:33;;;;;;;1.85;0.40;;;;;;;12.79;85.71;100107.72;10339493;28;20045;-73
2021/12/30 22:37:35;;;;;;;1.25;0.43;;;;;;;12.77;85.18;100114.84;10323356;28;20104;-73
2021/12/30 22:42:36;;;;;;;1.75;0.45;;;;;;;12.83;84.63;100109.31;10339298;28;20046;-73
2021/12/30 22:47:40;;;;;;;0.35;0.32;;;;;;;12.76;84.48;100106.06;10339474;28;20455;-72
2021/12/30 22:52:42;;;;;;;0.47;0.45;;;;;;;12.85;83.71;100120.69;10337888;28;20042;-73
2021/12/30 22:57:43;;;;;;;0.43;0.40;;;;;;;12.77;83.84;100125.41;10339232;28;20042;-73
2021/12/30 23:02:45;;;;;;;0.52;0.40;;;;;;;12.87;82.59;100132.00;10337219;28;20068;-73
2021/12/30 23:07:46;;;;;;;0.70;0.50;;;;;;;12.93;81.24;100137.06;10328870;28;20109;-73
2021/12/30 23:12:51;;;;;;;0.93;0.40;;;;;;;12.90;80.42;100134.53;10338492;28;20050;-73
2021/12/30 23:17:53;;;;;;;0.50;0.47;;;;;;;12.83;80.67;100135.69;10320310;28;20061;-73
2021/12/30 23:22:55;;;;;;;1.10;0.50;;;;;;;13.09;79.04;100138.16;10337383;28;20117;-73
2021/12/30 23:27:56;;;;;;;0.80;0.45;;;;;;;13.04;79.75;100132.19;10337341;28;20105;-72